Time;durP1;ratioP1;P1;durP2;ratioP2;P2;SDS_P1;SDS_P2;PMS_P1;PMS_P2;Temp;Humidity;BMP_temperature;BMP_pressure;BME280_temperature;BME280_humidity;BME280_pressure;Samples;Min_cycle;Max_cycle;Signal;HPM_P1;HPM_P2
2022/11/11 00:02:22;;;;;;;118.63;53.23;;;;;;;-141.97;84.09;47657.47;5031621;28;20163;-81
2022/11/11 00:04:47;;;;;;;119.10;55.13;;;;;;;-141.97;84.64;47678.63;5032037;28;20173;-82
2022/11/11 00:07:12;;;;;;;135.67;61.17;;;;;;;-141.97;84.46;47780.47;5037796;28;20225;-82
2022/11/11 00:09:38;;;;;;;235.23;110.50;;;;;;;-141.97;84.42;47578.66;5034138;28;20193;-83
2022/11/11 00:12:04;;;;;;;150.30;65.07;;;;;;;-141.97;84.61;47636.31;5032454;28;20186;-82
2022/11/11 00:14:29;;;;;;;143.63;67.73;;;;;;;-141.97;84.97;47590.19;5013666;28;20177;-82
2022/11/11 00:25:08;;;;;;;121.33;53.73;;;;;;;-141.97;84.72;47732.44;5031729;28;20173;-82
2022/11/11 00:27:34;;;;;;;118.03;52.80;;;;;;;-141.97;86.14;47743.97;5013755;28;20177;-81
2022/11/11 00:30:00;;;;;;;125.53;54.30;;;;;;;-141.97;87.36;47824.69;5031167;28;20274;-81
2022/11/11 00:32:30;;;;;;;126.00;54.37;;;;;;;-141.97;88.23;47738.19;5031171;28;20635;-81
2022/11/11 00:37:43;;;;;;;125.57;54.03;;;;;;;-141.97;89.84;47770.88;5031228;28;20227;-83
2022/11/11 00:40:10;;;;;;;124.00;54.53;;;;;;;-141.97;90.64;47747.81;5031247;28;20928;-82
2022/11/11 00:42:36;;;;;;;130.10;56.50;;;;;;;-141.97;90.77;47815.09;5031520;28;20487;-82
2022/11/11 00:45:01;;;;;;;120.00;53.87;;;;;;;-141.97;90.75;47697.84;5030964;28;20932;-82
2022/11/11 00:53:03;;;;;;;132.43;56.63;;;;;;;-141.97;89.59;47722.81;5031292;28;20431;-82
2022/11/11 00:55:28;;;;;;;128.23;55.10;;;;;;;-141.97;89.77;47745.88;5013165;28;20797;-81
2022/11/11 00:57:54;;;;;;;128.20;56.23;;;;;;;-141.97;89.18;47768.94;5030793;28;20413;-81
2022/11/11 01:00:19;;;;;;;122.13;54.47;;;;;;;-141.97;88.72;47738.19;5031168;28;20182;-81
2022/11/11 01:02:45;;;;;;;128.70;54.37;;;;;;;-141.97;88.13;47757.41;5031034;28;20165;-81
2022/11/11 01:05:10;;;;;;;112.00;51.43;;;;;;;-141.97;86.97;47755.50;5031256;28;20173;-81
2022/11/11 01:07:35;;;;;;;119.93;53.07;;;;;;;-141.97;87.21;47749.72;5013066;28;20618;-82
2022/11/11 01:10:01;;;;;;;119.47;52.50;;;;;;;-141.97;87.39;47722.81;5035963;28;20239;-81
2022/11/11 01:12:26;;;;;;;118.43;52.60;;;;;;;-141.97;87.44;47757.41;5050943;28;20169;-82
2022/11/11 01:14:52;;;;;;;126.63;53.63;;;;;;;-141.97;87.60;47717.06;5050793;28;20252;-82
2022/11/11 01:17:18;;;;;;;117.63;51.67;;;;;;;-141.97;87.80;47730.50;5050734;28;20244;-81
2022/11/11 01:19:43;;;;;;;120.97;51.60;;;;;;;-141.97;88.40;47745.88;5050416;28;20966;-83
2022/11/11 01:22:09;;;;;;;123.33;53.63;;;;;;;-141.97;88.42;47784.34;5050981;28;20165;-82
2022/11/11 01:24:36;;;;;;;116.30;51.77;;;;;;;-141.97;88.31;47788.19;5063957;28;20166;-83
2022/11/11 01:27:02;;;;;;;119.60;50.47;;;;;;;-141.97;87.82;47705.53;5057603;28;20158;-82
2022/11/11 01:29:27;;;;;;;114.27;50.77;;;;;;;-141.97;88.19;47715.13;5054762;28;20928;-82
2022/11/11 01:31:53;;;;;;;108.77;50.53;;;;;;;-141.97;88.92;47720.91;5054319;28;20154;-81
2022/11/11 01:34:18;;;;;;;112.93;50.90;;;;;;;-141.97;89.09;47701.69;5054030;28;20478;-81
2022/11/11 01:36:44;;;;;;;109.93;49.97;;;;;;;-141.97;89.38;47780.47;5054595;28;20248;-82
2022/11/11 01:39:09;;;;;;;115.50;51.00;;;;;;;-141.97;89.38;47757.41;5054463;28;20631;-81
2022/11/11 01:41:36;;;;;;;119.40;50.00;;;;;;;-141.97;90.16;47753.56;5054296;28;20170;-82
2022/11/11 01:44:17;;;;;;;111.27;50.37;;;;;;;-141.97;89.50;47738.19;5053880;28;20180;-82
2022/11/11 01:46:46;;;;;;;113.60;51.20;;;;;;;-141.97;89.54;47753.56;5054171;28;20404;-81
2022/11/11 01:49:35;;;;;;;120.90;51.90;;;;;;;-141.97;89.55;47653.63;5053780;28;20459;-81
2022/11/11 01:52:09;;;;;;;113.87;50.10;;;;;;;-141.97;89.33;47753.56;5053864;28;20404;-82
2022/11/11 01:54:40;;;;;;;117.27;53.33;;;;;;;-141.97;89.05;47753.56;5053902;28;20411;-82
2022/11/11 01:57:34;;;;;;;123.20;52.93;;;;;;;-141.97;89.12;47726.66;5035738;28;20420;-82
2022/11/11 02:00:06;;;;;;;124.53;53.47;;;;;;;-141.97;88.29;47661.31;4977641;28;20191;-82
2022/11/11 02:02:38;;;;;;;116.87;51.37;;;;;;;-141.97;87.96;47855.44;4973225;28;20192;-82
2022/11/11 02:07:52;;;;;;;113.03;49.87;;;;;;;-141.97;88.08;47743.97;4972728;28;20593;-83
2022/11/11 02:10:22;;;;;;;104.63;46.50;;;;;;;-141.97;88.16;47815.09;4972478;28;20495;-83
2022/11/11 02:15:31;;;;;;;107.10;49.23;;;;;;;-141.97;87.99;47728.59;4972936;28;20422;-83
2022/11/11 02:17:57;;;;;;;113.07;50.20;;;;;;;-141.97;87.96;47613.25;4972300;28;20936;-83
2022/11/11 02:20:28;;;;;;;122.10;51.37;;;;;;;-141.97;87.50;47749.72;4972539;28;20311;-83
2022/11/11 02:23:02;;;;;;;126.73;52.57;;;;;;;-141.97;86.04;47757.41;4972328;28;20184;-83
2022/11/11 02:25:31;;;;;;;106.73;48.90;;;;;;;-141.97;85.68;47680.53;4972410;28;20502;-82
2022/11/11 02:28:02;;;;;;;105.50;47.17;;;;;;;-141.97;85.40;47826.63;4972499;28;20176;-82
2022/11/11 02:30:27;;;;;;;106.73;47.07;;;;;;;-141.97;86.34;47699.75;4972182;28;20502;-83
2022/11/11 02:32:53;;;;;;;97.77;45.70;;;;;;;-141.97;85.29;47811.25;4972092;28;20458;-83
2022/11/11 02:35:24;;;;;;;100.53;47.37;;;;;;;-141.97;85.69;47703.59;4971268;28;20171;-84
2022/11/11 02:37:52;;;;;;;102.93;47.47;;;;;;;-141.97;85.77;47776.63;5041043;28;20846;-83
2022/11/11 02:40:26;;;;;;;106.53;47.60;;;;;;;-141.97;85.78;47663.22;5053084;28;20432;-82
2022/11/11 02:42:51;;;;;;;108.27;47.83;;;;;;;-141.97;85.61;47624.78;5052972;28;20429;-83
2022/11/11 02:45:17;;;;;;;108.00;48.17;;;;;;;-141.97;85.33;47797.78;5053189;28;20891;-82
2022/11/11 02:47:42;;;;;;;117.20;49.70;;;;;;;-141.97;85.48;47772.78;5052697;28;20591;-82
2022/11/11 02:50:08;;;;;;;119.30;51.53;;;;;;;-141.97;85.12;47772.78;5052470;28;20200;-82
2022/11/11 02:52:33;;;;;;;114.43;50.53;;;;;;;-141.97;84.96;47772.78;5052477;28;20240;-82
2022/11/11 02:54:59;;;;;;;107.17;48.70;;;;;;;-141.97;84.63;47595.97;5052588;28;20553;-83
2022/11/11 02:57:25;;;;;;;114.63;49.13;;;;;;;-141.97;84.89;47665.16;5052682;28;20637;-82
2022/11/11 02:59:50;;;;;;;109.77;47.03;;;;;;;-141.97;84.84;47561.38;5050547;28;20177;-82
2022/11/11 03:02:16;;;;;;;112.73;49.47;;;;;;;-141.97;84.78;47761.25;5053501;28;20161;-82
2022/11/11 03:04:41;;;;;;;115.30;50.10;;;;;;;-141.97;85.15;47619.03;5052622;28;20170;-83
2022/11/11 03:07:07;;;;;;;111.57;51.73;;;;;;;-141.97;84.69;47807.41;5052497;28;20166;-82
2022/11/11 03:09:32;;;;;;;118.97;53.00;;;;;;;-141.97;84.64;47776.63;5051968;28;20215;-82
2022/11/11 03:11:58;;;;;;;117.87;53.90;;;;;;;-141.97;85.11;47619.03;5052372;28;20200;-83
2022/11/11 03:14:23;;;;;;;110.97;52.17;;;;;;;-141.97;84.40;47576.75;5052151;28;20162;-82
2022/11/11 03:19:34;;;;;;;124.13;56.00;;;;;;;-141.97;84.97;47653.63;5051914;28;20160;-83
2022/11/11 03:22:01;;;;;;;121.27;55.33;;;;;;;-141.97;85.19;47772.78;5051946;28;20395;-82
2022/11/11 03:25:36;;;;;;;113.00;50.33;;;;;;;-141.97;84.93;47634.41;5034615;28;20181;-82
2022/11/11 03:27:12;;;;;;;110.40;49.37;;;;;;;-141.97;85.95;47842.00;5062303;28;20482;-82
2022/11/11 03:29:38;;;;;;;111.40;49.17;;;;;;;-141.97;86.44;47655.53;5054391;28;20510;-82
2022/11/11 03:32:04;;;;;;;112.33;48.40;;;;;;;-141.97;86.89;47843.91;5052362;28;20249;-82
2022/11/11 03:34:30;;;;;;;110.77;48.67;;;;;;;-141.97;86.92;47584.44;5052477;28;20583;-81
2022/11/11 03:39:39;;;;;;;115.10;50.07;;;;;;;-141.97;86.66;47703.59;5051915;28;20241;-82
2022/11/11 03:42:04;;;;;;;108.23;49.43;;;;;;;-141.97;86.60;47580.59;5051777;28;20502;-80
2022/11/11 03:44:30;;;;;;;112.50;48.70;;;;;;;-141.97;87.18;47678.63;5051731;28;20625;-81
2022/11/11 03:46:55;;;;;;;112.87;50.27;;;;;;;-141.97;87.33;47713.22;5052380;28;20165;-82
2022/11/11 03:49:20;;;;;;;110.27;50.03;;;;;;;-141.97;87.44;47749.72;5051599;28;20224;-81
2022/11/11 03:51:46;;;;;;;109.13;48.77;;;;;;;-141.97;87.45;47617.09;5051471;28;20240;-81
2022/11/11 03:54:12;;;;;;;108.37;47.93;;;;;;;-141.97;87.53;47742.03;5051511;28;20253;-82
2022/11/11 03:56:37;;;;;;;108.67;49.27;;;;;;;-141.97;87.99;47749.72;5051756;28;20193;-81
2022/11/11 03:59:02;;;;;;;118.93;50.20;;;;;;;-141.97;88.31;47828.53;5051531;28;20270;-81
2022/11/11 04:12:26;;;;;;;113.10;48.90;;;;;;;-141.97;90.45;47811.25;5051593;28;20403;-82
2022/11/11 04:17:34;;;;;;;213.87;88.13;;;;;;;-141.97;89.82;47745.88;5051263;28;20407;-82
2022/11/11 04:22:44;;;;;;;217.90;92.03;;;;;;;-141.97;88.05;47763.19;5051686;28;20226;-83
2022/11/11 04:30:40;;;;;;;194.53;77.87;;;;;;;-141.97;85.74;47751.66;5052039;28;20985;-82
2022/11/11 04:33:05;;;;;;;138.77;60.63;;;;;;;-141.97;85.93;47728.59;5051270;28;20408;-83
2022/11/11 04:35:31;;;;;;;140.83;60.17;;;;;;;-141.97;86.20;47770.88;5051173;28;20200;-83
2022/11/11 04:41:02;;;;;;;142.83;60.77;;;;;;;-141.97;86.15;47809.31;5051251;28;20612;-82
2022/11/11 04:43:25;;;;;;;159.37;70.43;;;;;;;-141.97;86.56;47743.97;5051078;28;20500;-83
2022/11/11 04:45:51;;;;;;;186.43;79.80;;;;;;;-141.97;86.98;47672.84;5051182;28;20474;-86
2022/11/11 04:48:17;;;;;;;200.37;88.93;;;;;;;-141.97;87.27;47692.06;5051040;28;20173;-85
2022/11/11 04:50:43;;;;;;;174.50;79.03;;;;;;;-141.97;87.70;47745.88;5033156;28;20200;-85
2022/11/11 04:53:12;;;;;;;129.37;57.73;;;;;;;-141.97;87.71;47665.16;5051326;28;20228;-84
2022/11/11 04:58:25;;;;;;;116.53;51.23;;;;;;;-141.97;87.38;47715.13;5052641;28;20409;-84
2022/11/11 05:00:50;;;;;;;126.17;52.57;;;;;;;-141.97;88.92;47743.97;5054866;28;20500;-83
2022/11/11 05:03:19;;;;;;;115.80;49.63;;;;;;;-141.97;89.98;47753.56;5054804;28;20400;-84
2022/11/11 05:08:55;;;;;;;231.13;103.27;;;;;;;-141.97;89.74;47770.88;5055121;28;20780;-83
2022/11/11 05:11:22;;;;;;;180.20;75.80;;;;;;;-141.97;89.92;47730.50;5054489;28;20483;-83
2022/11/11 05:22:13;;;;;;;160.30;67.23;;;;;;;-141.97;88.48;47738.19;5054640;28;20783;-85
2022/11/11 05:27:23;;;;;;;143.80;63.77;;;;;;;-141.97;87.91;47765.09;5055033;28;20413;-84
2022/11/11 05:29:48;;;;;;;156.70;68.53;;;;;;;-141.97;87.51;47736.28;5068844;28;20510;-82
2022/11/11 05:32:21;;;;;;;152.23;67.00;;;;;;;-141.97;87.06;47705.53;5060156;28;20193;-84
2022/11/11 05:34:47;;;;;;;143.37;60.87;;;;;;;-141.97;86.34;47822.78;5036363;28;20169;-84
2022/11/11 05:37:12;;;;;;;140.43;58.27;;;;;;;-141.97;86.03;47722.81;5054565;28;20498;-84
2022/11/11 05:39:38;;;;;;;128.47;57.00;;;;;;;-141.97;85.53;47818.94;5054204;28;20192;-85
2022/11/11 05:42:03;;;;;;;126.73;56.63;;;;;;;-141.97;85.52;47717.06;5036743;28;20230;-84
2022/11/11 05:44:29;;;;;;;117.40;53.50;;;;;;;-141.97;84.90;47784.34;5036537;28;20598;-84
2022/11/11 05:46:54;;;;;;;108.10;48.73;;;;;;;-141.97;85.13;47718.97;5036492;28;20203;-85
2022/11/11 05:49:20;;;;;;;107.47;47.50;;;;;;;-141.97;85.32;47842.00;5054276;28;20185;-86
2022/11/11 05:51:46;;;;;;;125.20;55.10;;;;;;;-141.97;85.44;47751.66;5036406;28;20215;-85
2022/11/11 05:54:13;;;;;;;115.27;50.87;;;;;;;-141.97;85.74;47615.19;5036564;28;20173;-86
2022/11/11 05:56:38;;;;;;;264.43;116.40;;;;;;;-141.97;85.68;47768.94;5036262;28;20404;-86
2022/11/11 05:59:04;;;;;;;237.60;98.20;;;;;;;-141.97;85.74;47636.31;5036732;28;20480;-84
2022/11/11 06:01:30;;;;;;;144.53;62.57;;;;;;;-141.97;85.43;47767.03;5055147;28;20158;-84
2022/11/11 06:03:56;;;;;;;130.70;57.23;;;;;;;-141.97;85.83;47642.09;5040141;28;20423;-85
2022/11/11 06:06:21;;;;;;;124.70;55.20;;;;;;;-141.97;85.76;47715.13;5055357;28;20165;-85
2022/11/11 06:08:47;;;;;;;119.87;52.83;;;;;;;-141.97;85.08;47703.59;5054229;28;20165;-85
2022/11/11 06:11:13;;;;;;;109.50;49.57;;;;;;;-141.97;84.43;47813.16;5031138;28;20592;-84
2022/11/11 06:13:38;;;;;;;103.97;45.93;;;;;;;-141.97;84.05;47788.19;5054264;28;20181;-85
2022/11/11 06:16:04;;;;;;;96.10;45.07;;;;;;;-141.97;82.84;47703.59;5038538;28;20168;-85
2022/11/11 06:18:30;;;;;;;107.40;47.80;;;;;;;-141.97;82.10;47682.47;5057595;28;20223;-85
2022/11/11 06:20:56;;;;;;;151.73;63.90;;;;;;;-141.97;80.95;47815.09;5053809;28;20400;-83
2022/11/11 06:23:22;;;;;;;221.57;96.60;;;;;;;-141.97;79.93;47751.66;5058062;28;20255;-84
2022/11/11 06:28:33;;;;;;;186.20;86.47;;;;;;;-141.97;77.90;47757.41;5053820;28;20246;-85
2022/11/11 06:30:58;;;;;;;154.70;70.47;;;;;;;-141.97;77.11;47749.72;5053418;28;20197;-85
2022/11/11 06:33:24;;;;;;;240.47;112.40;;;;;;;-141.97;75.64;47747.81;5053329;28;20201;-86
2022/11/11 06:35:50;;;;;;;172.40;84.57;;;;;;;-141.97;74.47;47743.97;5053301;28;20157;-84
2022/11/11 06:38:16;;;;;;;163.13;75.33;;;;;;;-141.97;74.12;47690.16;5053171;28;20216;-85
2022/11/11 06:40:42;;;;;;;124.63;54.97;;;;;;;-141.97;73.50;47790.09;5033817;28;20185;-84
2022/11/11 06:43:08;;;;;;;104.93;48.33;;;;;;;-141.97;72.94;47749.72;5053750;28;20170;-84
2022/11/11 06:45:35;;;;;;;100.60;47.80;;;;;;;-141.97;71.71;47707.44;5053614;28;20643;-85
2022/11/11 06:48:01;;;;;;;108.70;49.03;;;;;;;-141.97;71.28;47778.56;5053326;28;20158;-85
2022/11/11 06:50:27;;;;;;;104.37;48.53;;;;;;;-141.97;71.00;47684.38;5052172;28;20712;-85
2022/11/11 06:52:53;;;;;;;121.10;55.57;;;;;;;-141.97;70.27;47722.81;5052392;28;20177;-84
2022/11/11 06:55:18;;;;;;;162.40;65.77;;;;;;;-141.97;69.85;47811.25;5053288;28;20173;-84
2022/11/11 06:57:44;;;;;;;170.70;72.83;;;;;;;-141.97;69.04;47736.28;5036141;28;20616;-85
2022/11/11 07:00:10;;;;;;;121.67;55.73;;;;;;;-141.97;69.72;47653.63;5053742;28;20215;-84
2022/11/11 07:02:35;;;;;;;117.13;52.80;;;;;;;-141.97;68.92;47663.22;5035172;28;20279;-84
2022/11/11 07:05:00;;;;;;;123.47;57.67;;;;;;;-141.97;68.11;47738.19;5053336;28;20224;-84
2022/11/11 07:07:27;;;;;;;152.07;68.03;;;;;;;-141.97;67.17;47857.38;5055423;28;20173;-84
2022/11/11 07:09:54;;;;;;;140.13;67.20;;;;;;;-141.97;66.35;47703.59;5034935;28;20256;-84
2022/11/11 07:12:20;;;;;;;108.90;54.10;;;;;;;-141.97;65.24;47597.88;5053249;28;20196;-84
2022/11/11 07:14:46;;;;;;;110.73;52.20;;;;;;;-141.97;64.25;47836.22;5035082;28;20161;-85
2022/11/11 07:17:11;;;;;;;99.07;48.00;;;;;;;-141.97;63.73;47749.72;5052998;28;20165;-85
2022/11/11 07:19:37;;;;;;;95.80;47.33;;;;;;;-141.97;63.16;47811.25;5052749;28;20165;-86
2022/11/11 07:22:02;;;;;;;98.47;47.40;;;;;;;-141.97;62.90;47580.59;5034314;28;20166;-85
2022/11/11 07:24:27;;;;;;;90.43;46.57;;;;;;;-141.97;61.88;47601.72;5052718;28;20165;-84
2022/11/11 07:26:53;;;;;;;70.13;39.33;;;;;;;-141.97;62.51;47757.41;5052879;28;20184;-85
2022/11/11 07:29:18;;;;;;;60.30;32.40;;;;;;;-141.97;63.47;47826.63;5053431;28;20224;-83
2022/11/11 07:31:44;;;;;;;48.67;28.00;;;;;;;-141.97;65.16;47732.44;5051917;28;20184;-85
2022/11/11 07:34:09;;;;;;;45.20;23.80;;;;;;;-141.97;65.56;47628.63;5055000;28;20257;-85
2022/11/11 07:36:35;;;;;;;34.37;16.27;;;;;;;-141.97;65.62;47745.88;5034888;28;20173;-85
2022/11/11 07:39:00;;;;;;;32.97;17.87;;;;;;;-141.97;65.49;47553.69;5052481;28;20166;-84
2022/11/11 07:41:25;;;;;;;39.70;20.57;;;;;;;-141.97;65.78;47497.94;5051940;28;20180;-85
2022/11/11 07:43:51;;;;;;;45.33;24.50;;;;;;;-141.97;65.61;47672.84;5052391;28;20256;-84
2022/11/11 07:46:17;;;;;;;33.47;17.57;;;;;;;-141.97;66.19;47718.97;5034633;28;20648;-83
2022/11/11 07:48:43;;;;;;;35.30;18.40;;;;;;;-141.97;66.33;47565.22;5052187;28;20165;-84
2022/11/11 07:51:08;;;;;;;35.77;17.83;;;;;;;-141.97;66.56;47570.97;5052072;28;20172;-83
2022/11/11 07:53:34;;;;;;;37.20;20.13;;;;;;;-141.97;66.57;47782.41;5034176;28;20185;-82
2022/11/11 07:55:59;;;;;;;40.00;21.03;;;;;;;-141.97;66.69;47628.63;5051862;28;20550;-83
2022/11/11 07:58:24;;;;;;;44.90;22.13;;;;;;;-141.97;66.41;47842.00;5039674;28;20687;-82
2022/11/11 08:00:50;;;;;;;40.27;21.43;;;;;;;-141.97;66.24;47640.16;5051500;28;20231;-83
2022/11/11 08:03:15;;;;;;;42.77;21.80;;;;;;;-141.97;66.44;47655.53;5051504;28;20169;-83
2022/11/11 08:05:41;;;;;;;37.60;18.27;;;;;;;-141.97;66.31;47722.81;5051857;28;20594;-83
2022/11/11 08:08:07;;;;;;;37.70;20.70;;;;;;;-141.97;66.02;47715.13;5051936;28;20219;-82
2022/11/11 08:10:34;;;;;;;44.73;22.87;;;;;;;-141.97;65.65;47692.06;5051789;28;20224;-82
2022/11/11 08:15:43;;;;;;;34.93;18.60;;;;;;;-141.97;65.73;47676.69;5052542;28;20169;-81
2022/11/11 08:18:09;;;;;;;41.00;17.67;;;;;;;-141.97;65.86;47711.28;5052394;28;20161;-83
2022/11/11 08:20:34;;;;;;;38.57;20.83;;;;;;;-141.97;65.09;47703.59;5052679;28;20188;-83
2022/11/11 08:23:03;;;;;;;40.83;21.23;;;;;;;-141.97;64.51;47715.13;5051739;28;20169;-83
2022/11/11 08:25:29;;;;;;;39.10;20.20;;;;;;;-141.97;64.31;47663.22;5051692;28;20164;-83
2022/11/11 08:27:58;;;;;;;34.37;18.73;;;;;;;-141.97;63.49;47676.69;5051784;28;20161;-83
2022/11/11 08:30:24;;;;;;;36.23;18.43;;;;;;;-141.97;63.62;47722.81;5051805;28;20247;-82
2022/11/11 08:33:00;;;;;;;37.47;20.10;;;;;;;-141.97;64.52;47743.97;5054377;28;20169;-83
2022/11/11 08:35:26;;;;;;;32.90;14.93;;;;;;;-141.97;65.04;47676.69;5050866;28;20196;-81
2022/11/11 08:37:53;;;;;;;38.37;20.90;;;;;;;-141.97;64.94;47740.13;5055390;28;20212;-83
2022/11/11 08:40:18;;;;;;;38.20;21.33;;;;;;;-141.97;64.86;47734.34;5055805;28;20164;-83
2022/11/11 08:42:44;;;;;;;41.27;19.53;;;;;;;-141.97;64.98;47692.06;5055677;28;20181;-83
2022/11/11 08:45:09;;;;;;;36.10;20.60;;;;;;;-141.97;65.45;47730.50;5056044;28;20161;-82
2022/11/11 08:47:36;;;;;;;34.50;19.27;;;;;;;-141.97;65.99;47718.97;5055239;28;20196;-83
2022/11/11 08:50:02;;;;;;;33.23;17.30;;;;;;;-141.97;65.76;47711.28;5055317;28;20546;-83
2022/11/11 08:52:27;;;;;;;35.83;17.53;;;;;;;-141.97;65.68;47745.88;5054943;28;20252;-82
2022/11/11 08:54:52;;;;;;;31.47;16.90;;;;;;;-141.97;65.95;47747.81;5055224;28;20163;-83
2022/11/11 08:57:18;;;;;;;44.47;21.50;;;;;;;-141.97;66.05;47745.88;5054582;28;20221;-84
2022/11/11 08:59:43;;;;;;;39.80;22.20;;;;;;;-141.97;66.26;47711.28;5054833;28;20240;-84
2022/11/11 09:02:13;;;;;;;45.50;22.43;;;;;;;-141.97;65.41;47617.09;5057760;28;20653;-83
2022/11/11 09:04:39;;;;;;;46.57;22.40;;;;;;;-141.97;65.39;47699.75;5055363;28;20553;-83
2022/11/11 09:07:11;;;;;;;38.20;19.90;;;;;;;-141.97;65.67;47680.53;5055449;28;20184;-83
2022/11/11 09:09:36;;;;;;;41.30;21.23;;;;;;;-141.97;65.42;47782.41;5055265;28;20193;-85
2022/11/11 09:12:02;;;;;;;61.80;30.30;;;;;;;-141.97;65.46;47669.00;5044906;28;20248;-83
2022/11/11 09:14:28;;;;;;;35.43;19.93;;;;;;;-141.97;65.20;47747.81;5054497;28;20173;-83
2022/11/11 09:16:56;;;;;;;32.70;17.00;;;;;;;-141.97;65.04;47619.03;5054191;28;20181;-82
2022/11/11 09:19:22;;;;;;;35.30;18.73;;;;;;;-141.97;64.80;47797.78;5054261;28;20315;-83
2022/11/11 09:21:49;;;;;;;33.97;19.07;;;;;;;-141.97;64.43;47792.03;5054631;28;20165;-82
2022/11/11 09:24:15;;;;;;;38.00;21.83;;;;;;;-141.97;64.11;47874.69;5054326;28;20169;-84
2022/11/11 09:26:40;;;;;;;39.03;21.77;;;;;;;-141.97;63.75;47532.53;5054528;28;20169;-83
2022/11/11 09:29:06;;;;;;;36.57;19.60;;;;;;;-141.97;63.57;47540.22;5055038;28;20185;-84
2022/11/11 09:31:31;;;;;;;31.83;17.50;;;;;;;-141.97;62.40;47497.94;5054852;28;20162;-83
2022/11/11 09:33:57;;;;;;;33.50;18.27;;;;;;;-141.97;62.61;47530.59;5072970;28;20174;-83
2022/11/11 09:36:22;;;;;;;59.83;29.03;;;;;;;-141.97;62.31;47653.63;5057523;28;20244;-84
2022/11/11 09:38:47;;;;;;;36.60;19.23;;;;;;;-141.97;62.66;47792.03;5055977;28;20157;-83
2022/11/11 09:41:36;;;;;;;40.97;22.77;;;;;;;-141.97;62.83;47642.09;5053655;28;20176;-84
2022/11/11 09:44:02;;;;;;;33.27;18.80;;;;;;;-141.97;62.95;47726.66;5036735;28;20666;-83
2022/11/11 09:46:39;;;;;;;32.73;17.80;;;;;;;-141.97;63.16;47667.06;5053937;28;20161;-83
2022/11/11 09:49:55;;;;;;;30.80;17.07;;;;;;;-141.97;63.05;47711.28;5055517;28;20274;-83
2022/11/11 09:52:26;;;;;;;28.63;15.27;;;;;;;-141.97;63.00;47730.50;5054803;28;20256;-84
2022/11/11 09:55:01;;;;;;;36.03;18.70;;;;;;;-141.97;63.05;47569.06;5054649;28;20663;-82
2022/11/11 09:57:43;;;;;;;30.97;18.30;;;;;;;-141.97;63.16;47490.25;5056274;28;20624;-83
2022/11/11 10:00:16;;;;;;;30.10;17.37;;;;;;;-141.97;63.33;47513.31;5052418;28;20184;-85
2022/11/11 10:03:00;;;;;;;29.30;15.80;;;;;;;-141.97;64.11;47822.78;5053679;28;20611;-84
2022/11/11 10:05:44;;;;;;;28.60;16.60;;;;;;;-141.97;64.33;47720.91;5054730;28;20176;-83
2022/11/11 10:08:22;;;;;;;28.37;13.67;;;;;;;-141.97;65.79;47818.94;5056134;28;20192;-83
2022/11/11 10:10:50;;;;;;;33.47;16.63;;;;;;;-141.97;66.43;47542.16;5047996;28;20350;-83
2022/11/11 10:13:22;;;;;;;26.33;13.97;;;;;;;-141.97;66.39;47815.09;5054535;28;20173;-84
2022/11/11 10:15:56;;;;;;;26.90;14.97;;;;;;;-141.97;66.69;47715.13;5056209;28;20165;-82
2022/11/11 10:18:34;;;;;;;27.23;15.10;;;;;;;-141.97;66.84;47653.63;5049565;28;20165;-83
2022/11/11 10:21:05;;;;;;;28.87;15.87;;;;;;;-141.97;67.12;47759.34;5050242;28;20181;-82
2022/11/11 10:23:34;;;;;;;26.27;14.10;;;;;;;-141.97;66.88;47805.47;5058229;28;20162;-84
2022/11/11 10:26:22;;;;;;;31.97;17.80;;;;;;;-141.97;66.98;47817.00;5027547;28;20185;-83
2022/11/11 10:28:52;;;;;;;30.83;16.07;;;;;;;-141.97;67.01;47563.28;5046926;28;20261;-85
2022/11/11 10:31:19;;;;;;;27.17;15.57;;;;;;;-141.97;67.29;47672.84;5066892;28;20193;-82
2022/11/11 10:33:48;;;;;;;32.30;16.70;;;;;;;-141.97;66.98;47726.66;5071619;28;20244;-83
2022/11/11 10:36:18;;;;;;;27.10;14.27;;;;;;;-141.97;66.87;47630.56;5073226;28;20162;-83
2022/11/11 10:38:52;;;;;;;22.63;12.60;;;;;;;-141.97;67.06;47726.66;5072962;28;20169;-82
2022/11/11 10:41:29;;;;;;;28.50;15.20;;;;;;;-141.97;66.83;47753.56;5069670;28;20169;-83
2022/11/11 10:43:54;;;;;;;24.87;14.33;;;;;;;-141.97;66.80;47663.22;5053410;28;20196;-82
2022/11/11 10:46:29;;;;;;;29.13;16.77;;;;;;;-141.97;66.47;47722.81;5053015;28;20162;-82
2022/11/11 10:49:19;;;;;;;29.23;16.93;;;;;;;-141.97;66.51;47642.09;5054640;28;20181;-82
2022/11/11 10:51:55;;;;;;;22.37;13.97;;;;;;;-141.97;66.67;47828.53;5053907;28;20714;-83
2022/11/11 10:54:29;;;;;;;27.40;13.57;;;;;;;-141.97;67.00;47772.78;5052640;28;20608;-83
2022/11/11 10:57:00;;;;;;;25.67;13.07;;;;;;;-141.97;67.15;47695.91;5051512;28;20188;-83
2022/11/11 10:59:33;;;;;;;22.90;13.87;;;;;;;-141.97;67.17;47640.16;5052666;28;20161;-83
2022/11/11 11:02:08;;;;;;;25.30;13.53;;;;;;;-141.97;67.03;47730.50;5052521;28;20180;-82
2022/11/11 11:04:44;;;;;;;22.80;12.27;;;;;;;-141.97;66.73;47603.66;5052403;28;20161;-83
2022/11/11 11:07:16;;;;;;;28.03;15.00;;;;;;;-141.97;66.93;47728.59;5052862;28;20541;-83
2022/11/11 11:09:48;;;;;;;29.00;14.77;;;;;;;-141.97;67.23;47726.66;5052417;28;20594;-83
2022/11/11 11:12:23;;;;;;;24.47;13.57;;;;;;;-141.97;67.68;47711.28;5042357;28;20240;-84
2022/11/11 11:14:55;;;;;;;22.97;12.53;;;;;;;-141.97;67.39;47811.25;5052140;28;20177;-83
2022/11/11 11:17:37;;;;;;;25.07;12.93;;;;;;;-141.97;66.94;47768.94;5052085;28;20266;-82
2022/11/11 11:20:12;;;;;;;22.40;13.57;;;;;;;-141.97;67.09;47734.34;5052055;28;20252;-83
2022/11/11 11:22:45;;;;;;;24.17;14.03;;;;;;;-141.97;66.90;47722.81;5053151;28;20169;-84
2022/11/11 11:25:12;;;;;;;24.40;12.90;;;;;;;-141.97;66.60;47715.13;5053834;28;20662;-82
2022/11/11 11:27:37;;;;;;;22.30;13.43;;;;;;;-141.97;66.70;47722.81;5052886;28;20165;-82
2022/11/11 11:30:12;;;;;;;23.50;12.30;;;;;;;-141.97;66.48;47722.81;5051936;28;20189;-83
2022/11/11 11:32:41;;;;;;;25.63;14.17;;;;;;;-141.97;66.36;47730.50;5052255;28;20164;-82
2022/11/11 11:35:07;;;;;;;26.00;14.30;;;;;;;-141.97;66.42;47742.03;5055178;28;20153;-81
2022/11/11 11:37:48;;;;;;;29.90;15.27;;;;;;;-141.97;66.82;47738.19;5056940;28;20682;-83
2022/11/11 11:40:14;;;;;;;29.60;16.00;;;;;;;-141.97;66.90;47661.31;5052003;28;20628;-83
2022/11/11 11:42:39;;;;;;;28.40;15.13;;;;;;;-141.97;66.88;47722.81;5052232;28;20162;-82
2022/11/11 11:45:28;;;;;;;33.17;16.33;;;;;;;-141.97;66.87;47738.19;5051950;28;20165;-82
2022/11/11 11:47:53;;;;;;;27.20;15.53;;;;;;;-141.97;66.80;47701.69;5045748;28;20192;-83
2022/11/11 11:51:00;;;;;;;32.83;19.17;;;;;;;-141.97;66.16;47707.44;5046925;28;20193;-83
2022/11/11 11:53:42;;;;;;;40.17;18.67;;;;;;;-141.97;66.27;47818.94;4970913;28;20203;-83
2022/11/11 11:56:10;;;;;;;34.23;17.97;;;;;;;-141.97;65.95;47720.91;4971016;28;20365;-83
2022/11/11 11:58:53;;;;;;;37.33;19.30;;;;;;;-141.97;66.39;47686.31;4971040;28;20226;-82
2022/11/11 12:01:30;;;;;;;31.30;18.17;;;;;;;-141.97;67.12;47730.50;4970790;28;20184;-82
2022/11/11 12:04:24;;;;;;;36.77;20.23;;;;;;;-141.97;68.23;47736.28;4970656;28;20219;-82
2022/11/11 12:06:52;;;;;;;30.73;16.63;;;;;;;-141.97;69.00;47699.75;4958584;28;20172;-82
2022/11/11 12:09:33;;;;;;;32.93;18.23;;;;;;;-141.97;69.90;47772.78;4971613;28;20196;-82
2022/11/11 12:12:18;;;;;;;42.10;20.47;;;;;;;-141.97;71.18;47751.66;4962312;28;20239;-83
2022/11/11 12:15:11;;;;;;;34.60;20.97;;;;;;;-141.97;71.55;47724.75;4971112;28;20167;-85
2022/11/11 12:17:42;;;;;;;30.07;17.27;;;;;;;-141.97;71.76;47718.97;4970356;28;20295;-84
2022/11/11 12:20:16;;;;;;;32.63;17.30;;;;;;;-141.97;71.61;47730.50;4984608;28;20171;-83